Time;durP1;ratioP1;P1;durP2;ratioP2;P2;SDS_P1;SDS_P2;PMS_P1;PMS_P2;Temp;Humidity;BMP_temperature;BMP_pressure;BME280_temperature;BME280_humidity;BME280_pressure;Samples;Min_cycle;Max_cycle;Signal;HPM_P1;HPM_P2
2021/09/18 00:02:52;;;;;;;25.13;5.83;;;;;;;19.63;100.00;94351.94;10487063;28;20112;-73
2021/09/18 00:07:53;;;;;;;17.90;5.53;;;;;;;19.67;100.00;94367.59;10486280;28;20024;-73
2021/09/18 00:12:53;;;;;;;24.85;6.95;;;;;;;19.69;100.00;94360.69;10486107;28;20294;-73
2021/09/18 00:17:54;;;;;;;19.73;5.70;;;;;;;19.73;100.00;94368.97;10486086;28;20024;-73
2021/09/18 00:22:54;;;;;;;12.30;5.28;;;;;;;19.77;100.00;94367.97;10486186;28;20266;-73
2021/09/18 00:27:56;;;;;;;26.23;6.50;;;;;;;19.82;100.00;94347.88;10485573;28;20558;-73
2021/09/18 00:32:56;;;;;;;17.23;6.75;;;;;;;19.81;100.00;94343.53;10486283;28;20035;-72
2021/09/18 00:37:56;;;;;;;11.87;5.07;;;;;;;19.79;100.00;94364.88;10485283;28;20448;-72
2021/09/18 00:42:57;;;;;;;16.45;4.75;;;;;;;19.75;100.00;94370.22;10484999;28;20270;-72
2021/09/18 00:47:57;;;;;;;17.65;5.35;;;;;;;19.68;100.00;94375.44;10485298;28;20597;-72
2021/09/18 00:52:59;;;;;;;21.40;6.22;;;;;;;19.73;100.00;94371.69;10485192;28;20395;-72
2021/09/18 00:58:00;;;;;;;17.98;5.47;;;;;;;19.71;100.00;94401.25;10484759;28;20103;-72
2021/09/18 01:03:00;;;;;;;9.80;5.00;;;;;;;18.90;100.00;94432.34;10484785;28;20127;-72
2021/09/18 01:08:02;;;;;;;16.90;6.25;;;;;;;17.94;100.00;94460.13;10483684;28;20270;-72
2021/09/18 01:13:12;;;;;;;27.75;8.18;;;;;;;17.25;100.00;94475.50;10483798;28;20041;-72
2021/09/18 01:18:13;;;;;;;21.40;8.10;;;;;;;16.88;100.00;94459.56;10484278;28;20853;-72
2021/09/18 01:23:23;;;;;;;24.63;8.20;;;;;;;16.95;100.00;94463.69;10483977;28;20032;-72
2021/09/18 01:28:24;;;;;;;23.15;8.23;;;;;;;16.87;100.00;94460.63;10483734;28;20078;-72
2021/09/18 01:33:25;;;;;;;24.23;8.25;;;;;;;16.85;100.00;94449.28;10484905;28;20437;-72
2021/09/18 01:38:25;;;;;;;27.20;8.87;;;;;;;16.97;100.00;94434.31;10483959;28;20021;-72
2021/09/18 01:43:29;;;;;;;23.52;7.40;;;;;;;16.99;100.00;94441.00;10483445;28;20282;-72
2021/09/18 01:48:29;;;;;;;23.75;8.48;;;;;;;16.92;100.00;94425.19;10483901;28;20032;-72
2021/09/18 01:53:30;;;;;;;19.73;7.30;;;;;;;16.84;100.00;94431.44;10483833;28;20032;-72
2021/09/18 01:58:30;;;;;;;24.45;6.65;;;;;;;16.76;100.00;94437.66;10482883;28;20094;-72
2021/09/18 02:03:32;;;;;;;24.25;8.70;;;;;;;16.65;100.00;94431.75;10483373;28;20099;-72
2021/09/18 02:08:33;;;;;;;21.05;7.10;;;;;;;16.64;100.00;94440.19;10483736;28;20027;-72
2021/09/18 02:13:33;;;;;;;24.33;8.77;;;;;;;16.55;100.00;94418.50;10482606;28;20040;-72
2021/09/18 02:18:34;;;;;;;22.75;7.05;;;;;;;16.61;100.00;94405.56;10485687;28;20060;-72
2021/09/18 02:23:34;;;;;;;19.50;7.68;;;;;;;16.67;100.00;94391.50;10473283;28;20040;-72
2021/09/18 02:28:35;;;;;;;22.63;6.03;;;;;;;16.67;100.00;94398.88;10490258;28;20021;-72
2021/09/18 02:33:35;;;;;;;27.60;7.90;;;;;;;16.84;100.00;94407.00;10490787;28;20297;-72
2021/09/18 02:38:36;;;;;;;24.00;8.48;;;;;;;16.89;100.00;94404.13;10501577;28;20297;-72
2021/09/18 02:43:36;;;;;;;25.53;8.23;;;;;;;16.96;100.00;94408.28;10488672;28;20368;-71
2021/09/18 02:48:36;;;;;;;18.98;7.88;;;;;;;16.97;100.00;94401.72;10513772;28;20274;-72
2021/09/18 02:53:37;;;;;;;24.00;9.40;;;;;;;16.96;100.00;94411.78;10513890;28;20020;-72
2021/09/18 02:58:37;;;;;;;21.00;8.40;;;;;;;16.86;100.00;94393.09;10531277;28;20659;-72
2021/09/18 03:03:38;;;;;;;18.10;6.90;;;;;;;16.79;100.00;94390.09;10530801;28;20024;-72
2021/09/18 03:08:38;;;;;;;30.63;9.32;;;;;;;16.89;100.00;94395.22;10531904;28;20458;-72
2021/09/18 03:13:39;;;;;;;27.70;10.38;;;;;;;16.86;100.00;94399.31;10530900;28;20569;-72
2021/09/18 03:18:39;;;;;;;32.90;11.38;;;;;;;16.90;100.00;94405.75;10530513;28;20031;-72
2021/09/18 03:23:40;;;;;;;30.98;10.20;;;;;;;16.81;100.00;94394.06;10530539;28;20392;-72
2021/09/18 03:28:40;;;;;;;28.40;10.90;;;;;;;16.66;100.00;94380.97;10511687;28;20021;-73
2021/09/18 03:33:41;;;;;;;22.40;10.13;;;;;;;16.43;100.00;94386.56;10529558;28;20031;-72
2021/09/18 03:38:41;;;;;;;21.50;10.20;;;;;;;16.39;100.00;94388.31;10529753;28;20274;-72
2021/09/18 03:43:42;;;;;;;26.00;11.27;;;;;;;16.37;100.00;94387.84;10529661;28;20525;-72
2021/09/18 03:48:42;;;;;;;23.27;10.55;;;;;;;16.32;100.00;94367.09;10529148;28;20894;-72
2021/09/18 03:53:43;;;;;;;27.70;9.45;;;;;;;16.24;100.00;94370.59;10528900;28;20375;-72
2021/09/18 03:58:43;;;;;;;22.67;9.93;;;;;;;16.27;100.00;94385.44;10528990;28;20032;-72
2021/09/18 04:03:43;;;;;;;35.15;12.20;;;;;;;16.40;100.00;94401.56;10528491;28;20282;-72
2021/09/18 04:08:45;;;;;;;28.53;11.30;;;;;;;16.47;100.00;94384.81;10529132;28;20024;-72
2021/09/18 04:13:47;;;;;;;26.55;11.25;;;;;;;16.51;100.00;94396.63;10528694;28;20298;-72
2021/09/18 04:18:48;;;;;;;34.05;9.95;;;;;;;16.50;100.00;94402.38;10527979;28;20032;-72
2021/09/18 04:23:49;;;;;;;33.95;11.93;;;;;;;16.64;100.00;94394.09;10528747;28;20153;-72
2021/09/18 04:28:49;;;;;;;19.48;9.05;;;;;;;16.88;100.00;94394.41;10527830;28;20028;-72
2021/09/18 04:33:50;;;;;;;26.20;10.25;;;;;;;17.08;100.00;94403.00;10528117;28;20032;-72
2021/09/18 04:38:50;;;;;;;23.27;9.05;;;;;;;17.19;100.00;94387.97;10509117;28;20028;-72
2021/09/18 04:43:51;;;;;;;26.90;9.87;;;;;;;17.16;100.00;94394.03;10527125;28;20032;-72
2021/09/18 04:48:52;;;;;;;30.67;11.23;;;;;;;16.88;100.00;94443.28;10527211;28;20297;-72
2021/09/18 04:53:52;;;;;;;25.95;10.48;;;;;;;16.41;100.00;94500.03;10526544;28;20096;-72
2021/09/18 04:58:53;;;;;;;28.43;14.03;;;;;;;16.17;100.00;94530.25;10526643;28;20107;-72
2021/09/18 05:03:53;;;;;;;33.03;12.83;;;;;;;16.06;100.00;94508.84;10526463;28;20027;-72
2021/09/18 05:08:54;;;;;;;31.10;11.38;;;;;;;16.04;100.00;94489.38;10525854;28;20320;-72
2021/09/18 05:13:54;;;;;;;28.07;10.80;;;;;;;16.00;100.00;94441.53;10525870;28;20155;-73
2021/09/18 05:18:55;;;;;;;36.50;12.70;;;;;;;15.93;100.00;94471.00;10493509;28;20036;-73
2021/09/18 05:23:55;;;;;;;21.20;9.40;;;;;;;15.94;100.00;94448.22;10468184;28;20036;-72
2021/09/18 05:28:56;;;;;;;25.85;10.52;;;;;;;16.10;100.00;94454.00;10486710;28;20017;-72
2021/09/18 05:33:56;;;;;;;25.80;9.83;;;;;;;16.06;100.00;94451.91;10486289;28;20032;-72
2021/09/18 05:38:56;;;;;;;23.35;10.30;;;;;;;16.31;100.00;94478.59;10486086;28;20274;-72
2021/09/18 05:43:57;;;;;;;28.97;11.83;;;;;;;16.54;100.00;94465.72;10510344;28;20407;-72
2021/09/18 05:48:57;;;;;;;38.33;12.75;;;;;;;16.77;100.00;94476.44;10507707;28;20289;-72
2021/09/18 05:53:58;;;;;;;25.67;10.40;;;;;;;16.88;100.00;94475.00;10523554;28;20033;-72
2021/09/18 05:59:02;;;;;;;27.83;9.57;;;;;;;17.00;100.00;94472.47;10534980;28;20020;-72
2021/09/18 06:04:03;;;;;;;25.38;9.00;;;;;;;17.30;100.00;94469.09;10508566;28;20409;-72
2021/09/18 06:09:04;;;;;;;19.48;8.40;;;;;;;17.55;100.00;94470.97;10492441;28;20036;-72
2021/09/18 06:14:04;;;;;;;24.92;9.80;;;;;;;17.69;100.00;94465.31;10525078;28;20058;-72
2021/09/18 06:19:05;;;;;;;25.55;9.63;;;;;;;17.89;100.00;94463.81;10527939;28;20040;-72
2021/09/18 06:24:10;;;;;;;22.63;8.45;;;;;;;18.07;100.00;94450.97;10492519;28;20032;-71
2021/09/18 06:29:10;;;;;;;22.13;8.32;;;;;;;18.16;100.00;94458.28;10506443;28;20025;-72
2021/09/18 06:34:11;;;;;;;21.88;7.00;;;;;;;18.49;100.00;94472.03;10492817;28;20024;-72
2021/09/18 06:39:11;;;;;;;28.97;8.37;;;;;;;18.70;100.00;94441.28;10492025;28;20033;-72
2021/09/18 06:44:12;;;;;;;20.33;8.40;;;;;;;19.03;100.00;94444.06;10554073;28;20285;-71
2021/09/18 06:49:12;;;;;;;23.00;8.77;;;;;;;19.34;100.00;94431.13;10570197;28;20028;-72
2021/09/18 06:54:12;;;;;;;23.83;9.43;;;;;;;19.71;100.00;94437.47;10530807;28;20851;-72
2021/09/18 06:59:13;;;;;;;29.92;9.05;;;;;;;20.73;100.00;94427.81;10529043;28;20298;-72
2021/09/18 07:04:13;;;;;;;24.67;9.35;;;;;;;19.54;100.00;94443.91;10490645;28;20078;-72
2021/09/18 07:09:14;;;;;;;20.77;9.13;;;;;;;18.59;100.00;94446.34;10487892;28;20036;-72
2021/09/18 07:14:14;;;;;;;29.40;9.70;;;;;;;18.58;100.00;94456.41;10488401;28;20421;-72
2021/09/18 07:19:15;;;;;;;28.70;11.07;;;;;;;18.84;100.00;94462.78;10487417;28;20865;-72
2021/09/18 07:24:15;;;;;;;24.70;7.95;;;;;;;21.14;100.00;94428.56;10488202;28;20278;-72
2021/09/18 07:29:16;;;;;;;22.93;8.17;;;;;;;20.86;100.00;94425.84;10486089;28;20036;-72
2021/09/18 07:34:17;;;;;;;16.67;8.17;;;;;;;20.67;100.00;94435.41;10488018;28;20040;-72
2021/09/18 07:39:18;;;;;;;25.13;9.70;;;;;;;21.15;100.00;94432.91;10487749;28;20340;-72
2021/09/18 07:44:19;;;;;;;18.88;8.20;;;;;;;21.13;100.00;94440.66;10487239;28;20056;-72
2021/09/18 07:49:19;;;;;;;20.00;8.23;;;;;;;20.98;100.00;94434.78;10487459;28;20111;-72
2021/09/18 07:54:20;;;;;;;15.57;8.75;;;;;;;20.63;100.00;94438.03;10487155;28;20028;-72
2021/09/18 07:59:20;;;;;;;13.50;7.85;;;;;;;20.26;100.00;94435.38;10486946;28;20111;-72
2021/09/18 08:04:20;;;;;;;22.33;10.20;;;;;;;19.61;100.00;94435.97;10486418;28;20032;-72
2021/09/18 08:09:21;;;;;;;18.50;9.07;;;;;;;19.43;100.00;94449.00;10486152;28;20298;-72
2021/09/18 08:14:21;;;;;;;15.70;8.35;;;;;;;18.97;100.00;94469.16;10467589;28;20396;-72
2021/09/18 08:19:22;;;;;;;19.88;10.13;;;;;;;18.83;100.00;94467.44;10485225;28;20121;-72
2021/09/18 08:24:22;;;;;;;23.00;9.30;;;;;;;18.65;100.00;94463.28;10486180;28;20033;-72
2021/09/18 08:29:22;;;;;;;18.27;9.00;;;;;;;18.50;100.00;94470.88;10485390;28;20657;-72
2021/09/18 08:34:23;;;;;;;22.58;9.70;;;;;;;18.78;100.00;94479.34;10485379;28;20281;-72
2021/09/18 08:39:23;;;;;;;21.30;9.63;;;;;;;19.19;100.00;94484.34;10485484;28;20024;-72
2021/09/18 08:44:24;;;;;;;16.87;9.70;;;;;;;19.81;100.00;94471.72;10485124;28;20704;-72
2021/09/18 08:49:27;;;;;;;15.93;9.07;;;;;;;20.34;100.00;94468.34;10484196;28;20293;-72
2021/09/18 08:54:27;;;;;;;20.85;9.85;;;;;;;21.17;100.00;94442.34;10484957;28;20097;-72
2021/09/18 08:59:28;;;;;;;20.58;8.90;;;;;;;21.47;100.00;94443.91;10484929;28;20050;-72
2021/09/18 09:04:32;;;;;;;15.90;8.90;;;;;;;21.64;100.00;94460.03;10484558;28;20021;-72
2021/09/18 09:09:53;;;;;;;16.38;9.40;;;;;;;21.63;100.00;94480.31;10484177;28;20290;-72
2021/09/18 09:14:54;;;;;;;24.33;12.43;;;;;;;21.14;100.00;94483.22;10483990;28;20048;-72
2021/09/18 09:19:55;;;;;;;19.65;11.75;;;;;;;20.28;100.00;94452.19;10483907;28;20024;-72
2021/09/18 09:24:55;;;;;;;22.17;12.95;;;;;;;19.70;100.00;94465.06;10484735;28;20078;-72
2021/09/18 09:29:57;;;;;;;19.07;10.17;;;;;;;18.82;100.00;94465.06;10482900;28;20302;-72
2021/09/18 09:35:01;;;;;;;15.57;9.38;;;;;;;18.34;100.00;94453.56;10483413;28;20021;-72
2021/09/18 09:40:06;;;;;;;19.45;9.98;;;;;;;18.30;100.00;94458.84;10483390;28;20031;-73
2021/09/18 09:45:19;;;;;;;19.73;10.48;;;;;;;18.23;100.00;94472.94;10482181;28;20024;-73
2021/09/18 09:50:19;;;;;;;14.52;9.70;;;;;;;18.44;100.00;94478.44;10483130;28;20052;-73
2021/09/18 09:55:20;;;;;;;19.67;11.05;;;;;;;18.60;100.00;94486.00;10483781;28;20035;-73
2021/09/18 10:00:21;;;;;;;20.98;12.48;;;;;;;18.45;100.00;94487.41;10484284;28;20024;-71
2021/09/18 10:05:21;;;;;;;16.23;11.50;;;;;;;18.70;100.00;94495.72;10482741;28;20032;-71
2021/09/18 10:10:22;;;;;;;17.03;9.67;;;;;;;18.88;100.00;94493.69;10483657;28;20024;-71
2021/09/18 10:15:27;;;;;;;12.10;9.88;;;;;;;18.54;100.00;94501.75;10483524;28;20569;-71
2021/09/18 10:25:36;;;;;;;23.15;11.98;;;;;;;16.66;100.00;94573.63;10510081;28;20553;-71
2021/09/18 10:30:44;;;;;;;36.03;14.90;;;;;;;16.41;100.00;94581.41;10490337;28;20024;-69
2021/09/18 10:35:53;;;;;;;19.63;12.80;;;;;;;15.88;100.00;94613.66;10506923;28;20111;-70
2021/09/18 10:41:06;;;;;;;25.05;14.50;;;;;;;15.06;100.00;94610.16;10528304;28;20024;-68
2021/09/18 10:46:08;;;;;;;24.75;11.38;;;;;;;14.99;100.00;94601.66;10534624;28;20027;-69
2021/09/18 10:51:41;;;;;;;17.35;9.38;;;;;;;15.02;100.00;94595.63;10534749;28;20028;-69
2021/09/18 10:56:57;;;;;;;12.52;7.90;;;;;;;15.02;100.00;94582.09;10495265;28;20021;-69
2021/09/18 11:02:30;;;;;;;15.88;8.85;;;;;;;15.29;100.00;94561.44;10527829;28;20028;-70
2021/09/18 11:07:39;;;;;;;18.92;9.93;;;;;;;15.38;100.00;94556.91;10534184;28;20032;-70
2021/09/18 11:12:41;;;;;;;12.95;7.00;;;;;;;15.45;100.00;94540.22;10533524;28;20032;-70
2021/09/18 11:17:44;;;;;;;14.60;7.35;;;;;;;15.46;100.00;94569.72;10532194;28;20124;-70
2021/09/18 11:22:53;;;;;;;22.20;12.07;;;;;;;15.53;100.00;94575.47;10531634;28;20055;-70
2021/09/18 11:28:03;;;;;;;21.55;11.93;;;;;;;15.42;100.00;94576.84;10531773;28;20031;-70
2021/09/18 11:33:04;;;;;;;17.45;9.77;;;;;;;15.45;100.00;94586.25;10532315;28;20024;-70
2021/09/18 11:38:07;;;;;;;23.60;10.45;;;;;;;15.49;100.00;94601.59;10531455;28;20028;-70
2021/09/18 11:43:08;;;;;;;12.90;7.82;;;;;;;15.62;100.00;94612.66;10530264;28;20032;-71
2021/09/18 11:48:09;;;;;;;12.37;7.77;;;;;;;15.48;100.00;94615.44;10529313;28;20471;-71
2021/09/18 11:53:13;;;;;;;13.40;8.43;;;;;;;15.40;100.00;94614.25;10528677;28;20292;-71
2021/09/18 11:58:31;;;;;;;12.73;8.88;;;;;;;15.42;100.00;94606.63;10528875;28;20119;-70
2021/09/18 12:03:40;;;;;;;17.23;10.10;;;;;;;15.33;100.00;94603.03;10528828;28;20032;-70
2021/09/18 12:08:42;;;;;;;18.98;9.77;;;;;;;15.62;100.00;94602.63;10529052;28;20036;-70
2021/09/18 12:13:45;;;;;;;17.85;9.88;;;;;;;16.30;100.00;94607.16;10528425;28;20058;-70
2021/09/18 12:18:51;;;;;;;18.05;9.15;;;;;;;16.61;100.00;94592.78;10500297;28;20036;-70
2021/09/18 12:24:07;;;;;;;11.27;8.40;;;;;;;16.48;100.00;94576.31;10479474;28;20077;-70
2021/09/18 12:29:09;;;;;;;14.93;9.57;;;;;;;16.32;100.00;94594.91;10527097;28;20237;-70
2021/09/18 12:34:12;;;;;;;16.13;11.45;;;;;;;16.20;100.00;94594.69;10526955;28;20043;-73
2021/09/18 12:39:13;;;;;;;15.57;11.10;;;;;;;16.00;100.00;94593.31;10527841;28;20027;-78
2021/09/18 12:44:20;;;;;;;19.08;12.05;;;;;;;16.28;100.00;94593.13;10527052;28;20055;-73
2021/09/18 12:49:22;;;;;;;16.73;12.15;;;;;;;16.48;100.00;94580.91;10528484;28;20514;-73
2021/09/18 12:54:22;;;;;;;18.45;13.50;;;;;;;16.61;100.00;94565.66;10527915;28;20039;-73
2021/09/18 12:59:23;;;;;;;18.67;13.80;;;;;;;16.58;100.00;94567.06;10529255;28;20043;-73
2021/09/18 13:04:24;;;;;;;22.75;15.15;;;;;;;16.75;100.00;94558.16;10529537;28;20486;-74
2021/09/18 13:09:39;;;;;;;27.38;15.90;;;;;;;16.90;100.00;94552.31;10524620;28;20036;-74
2021/09/18 13:14:49;;;;;;;28.85;17.05;;;;;;;17.01;100.00;94538.41;10516409;28;20060;-73
2021/09/18 13:19:52;;;;;;;17.50;13.07;;;;;;;16.87;100.00;94538.53;10527646;28;20039;-73
2021/09/18 13:24:54;;;;;;;17.42;12.15;;;;;;;16.88;100.00;94551.00;10524568;28;20043;-73
2021/09/18 13:29:56;;;;;;;16.90;11.20;;;;;;;17.05;100.00;94552.97;10527429;28;20046;-73
2021/09/18 13:34:56;;;;;;;19.05;12.43;;;;;;;17.12;100.00;94549.78;10529005;28;20111;-73
2021/09/18 13:39:56;;;;;;;17.77;12.65;;;;;;;17.11;100.00;94545.44;10527427;28;20032;-73
2021/09/18 13:44:58;;;;;;;24.00;12.90;;;;;;;17.24;100.00;94544.50;10527414;28;20071;-74
2021/09/18 13:49:59;;;;;;;19.48;12.63;;;;;;;17.28;100.00;94542.75;10528254;28;20293;-73
2021/09/18 13:55:00;;;;;;;17.98;12.80;;;;;;;17.15;100.00;94536.38;10527490;28;20035;-73
2021/09/18 14:00:00;;;;;;;21.63;13.20;;;;;;;17.25;100.00;94543.41;10528007;28;20028;-73
2021/09/18 14:05:01;;;;;;;20.43;14.83;;;;;;;17.11;100.00;94532.69;10527931;28;20544;-72
2021/09/18 14:10:01;;;;;;;21.90;15.07;;;;;;;17.00;100.00;94536.84;10527866;28;20298;-72
2021/09/18 14:15:03;;;;;;;25.33;13.82;;;;;;;16.45;100.00;94536.25;10531420;28;20131;-72
2021/09/18 14:20:04;;;;;;;25.75;14.35;;;;;;;16.51;100.00;94537.69;10535515;28;20077;-72
2021/09/18 14:25:06;;;;;;;21.63;14.98;;;;;;;16.61;100.00;94546.66;10521646;28;20113;-72
2021/09/18 14:30:08;;;;;;;23.40;16.33;;;;;;;16.72;100.00;94548.75;10535177;28;20024;-72
2021/09/18 14:35:09;;;;;;;24.35;16.20;;;;;;;16.71;100.00;94557.22;10534494;28;20482;-72
2021/09/18 14:40:11;;;;;;;22.95;15.63;;;;;;;16.64;100.00;94551.44;10513875;28;20024;-72
2021/09/18 14:45:12;;;;;;;25.40;17.38;;;;;;;16.60;100.00;94566.75;10492082;28;20032;-74
2021/09/18 14:50:13;;;;;;;26.33;16.83;;;;;;;16.62;100.00;94557.19;10491631;28;20394;-73
2021/09/18 14:55:14;;;;;;;26.35;18.15;;;;;;;16.64;100.00;94554.16;10491949;28;20029;-72
2021/09/18 15:00:14;;;;;;;23.08;16.67;;;;;;;16.61;100.00;94565.66;10490860;28;20058;-73
2021/09/18 15:05:15;;;;;;;28.13;17.73;;;;;;;16.46;100.00;94575.00;10490693;28;20036;-72
2021/09/18 15:10:16;;;;;;;26.48;18.30;;;;;;;16.16;100.00;94559.28;10489489;28;20024;-72
2021/09/18 15:15:16;;;;;;;26.63;16.63;;;;;;;16.20;100.00;94560.25;10489508;28;20060;-74
2021/09/18 15:20:16;;;;;;;29.17;17.92;;;;;;;16.08;100.00;94557.31;10471946;28;20043;-74
2021/09/18 15:25:17;;;;;;;25.73;18.05;;;;;;;15.89;100.00;94562.97;10489428;28;20033;-74
2021/09/18 15:30:17;;;;;;;24.00;16.90;;;;;;;16.00;100.00;94575.13;10490764;28;20024;-72
2021/09/18 15:35:18;;;;;;;25.80;16.42;;;;;;;15.97;100.00;94556.00;10490680;28;20032;-72
2021/09/18 15:40:18;;;;;;;24.50;16.35;;;;;;;15.94;100.00;94568.25;10489285;28;20062;-73
2021/09/18 15:45:19;;;;;;;25.83;16.70;;;;;;;15.86;100.00;94550.84;10489771;28;20033;-72
2021/09/18 15:50:19;;;;;;;26.83;17.13;;;;;;;15.79;100.00;94560.50;10488583;28;20287;-74
2021/09/18 15:55:20;;;;;;;23.63;16.27;;;;;;;15.63;100.00;94560.88;10489548;28;20328;-74
2021/09/18 16:00:20;;;;;;;23.88;15.63;;;;;;;15.44;100.00;94563.00;10489847;28;20452;-73
2021/09/18 16:05:20;;;;;;;23.90;15.33;;;;;;;15.30;100.00;94561.13;10488216;28;20023;-73
2021/09/18 16:10:21;;;;;;;18.70;14.02;;;;;;;15.20;100.00;94573.00;10489754;28;20291;-73
2021/09/18 16:15:22;;;;;;;22.90;14.65;;;;;;;15.10;100.00;94570.53;10488809;28;20051;-73
2021/09/18 16:20:22;;;;;;;22.33;14.93;;;;;;;14.90;100.00;94581.81;10489366;28;20040;-73
2021/09/18 16:25:23;;;;;;;22.52;14.55;;;;;;;14.94;100.00;94577.41;10488530;28;20046;-72
2021/09/18 16:30:23;;;;;;;20.27;12.43;;;;;;;14.93;100.00;94581.19;10488681;28;20036;-73
2021/09/18 16:35:24;;;;;;;21.88;13.15;;;;;;;14.84;100.00;94573.78;10487189;28;20090;-73
2021/09/18 16:40:24;;;;;;;19.27;13.73;;;;;;;14.75;100.00;94578.34;10518695;28;20032;-73
2021/09/18 16:45:26;;;;;;;21.95;14.35;;;;;;;14.73;100.00;94583.25;10527760;28;20277;-73
2021/09/18 16:50:26;;;;;;;21.95;15.82;;;;;;;14.63;100.00;94586.97;10528275;28;20127;-73
2021/09/18 16:55:27;;;;;;;17.42;12.27;;;;;;;14.58;100.00;94578.13;10522247;28;20024;-73
2021/09/18 17:00:28;;;;;;;17.33;12.00;;;;;;;14.52;100.00;94596.34;10528654;28;20113;-71
2021/09/18 17:05:28;;;;;;;15.75;11.05;;;;;;;14.52;100.00;94591.75;10526566;28;20534;-70
2021/09/18 17:10:29;;;;;;;19.40;12.05;;;;;;;14.51;100.00;94606.38;10525615;28;20371;-71
2021/09/18 17:15:29;;;;;;;18.05;11.50;;;;;;;14.50;100.00;94612.09;10524927;28;20048;-73
2021/09/18 17:20:30;;;;;;;16.13;11.25;;;;;;;14.50;100.00;94607.47;10504637;28;20486;-73
2021/09/18 17:25:31;;;;;;;15.68;10.57;;;;;;;14.48;100.00;94608.88;10509159;28;20036;-70
2021/09/18 17:30:32;;;;;;;14.50;9.95;;;;;;;14.50;100.00;94614.81;10504632;28;20028;-71
2021/09/18 17:35:33;;;;;;;14.75;9.73;;;;;;;14.50;100.00;94625.63;10506983;28;20033;-72
2021/09/18 17:40:33;;;;;;;12.55;9.57;;;;;;;14.40;100.00;94632.03;10504003;28;20029;-73
2021/09/18 17:45:34;;;;;;;12.13;8.90;;;;;;;14.37;100.00;94638.00;10509768;28;20115;-73
2021/09/18 17:50:35;;;;;;;10.95;8.23;;;;;;;14.28;100.00;94653.34;10514318;28;20302;-70
2021/09/18 17:55:35;;;;;;;13.35;8.90;;;;;;;14.25;100.00;94656.63;10513690;28;20475;-70
2021/09/18 18:00:36;;;;;;;15.10;7.97;;;;;;;14.15;100.00;94671.13;10515882;28;20024;-71
2021/09/18 18:05:37;;;;;;;13.57;8.00;;;;;;;14.14;100.00;94667.63;10510644;28;20777;-71
2021/09/18 18:10:37;;;;;;;11.35;7.15;;;;;;;14.10;100.00;94677.41;10538685;28;20032;-72
2021/09/18 18:15:38;;;;;;;14.70;7.97;;;;;;;14.14;100.00;94674.94;10523382;28;20056;-72
2021/09/18 18:20:38;;;;;;;12.40;7.80;;;;;;;14.07;100.00;94688.03;10536256;28;20032;-75
2021/09/18 18:25:39;;;;;;;14.32;8.77;;;;;;;13.78;100.00;94686.31;10492250;28;20274;-74
2021/09/18 18:30:39;;;;;;;11.15;8.05;;;;;;;13.74;100.00;94688.81;10491164;28;20036;-75
2021/09/18 18:35:40;;;;;;;13.90;8.55;;;;;;;13.74;100.00;94688.00;10491861;28;20427;-74
2021/09/18 18:40:40;;;;;;;15.05;7.88;;;;;;;13.77;100.00;94699.03;10492200;28;20036;-73
2021/09/18 18:45:41;;;;;;;18.48;9.07;;;;;;;13.61;100.00;94716.56;10493130;28;20035;-74
2021/09/18 18:50:42;;;;;;;13.60;7.75;;;;;;;13.66;100.00;94711.88;10492991;28;20123;-75
2021/09/18 18:55:42;;;;;;;12.20;9.05;;;;;;;13.63;100.00;94717.88;10474702;28;20029;-74
2021/09/18 19:00:44;;;;;;;13.13;8.35;;;;;;;13.47;100.00;94714.59;10513957;28;20028;-73
2021/09/18 19:05:44;;;;;;;12.50;7.93;;;;;;;13.40;100.00;94708.75;10492552;28;20024;-74
2021/09/18 19:10:45;;;;;;;12.88;7.93;;;;;;;13.46;100.00;94696.78;10492223;28;20029;-71
2021/09/18 19:15:46;;;;;;;11.02;6.25;;;;;;;13.37;100.00;94687.75;10491963;28;20106;-72
2021/09/18 19:20:46;;;;;;;11.38;6.70;;;;;;;13.54;100.00;94697.22;10491655;28;20029;-72
2021/09/18 19:25:47;;;;;;;10.63;6.28;;;;;;;13.59;100.00;94692.56;10568543;28;20023;-74
2021/09/18 19:30:47;;;;;;;7.13;5.33;;;;;;;13.56;100.00;94703.13;10506599;28;20028;-72
2021/09/18 19:35:47;;;;;;;5.97;4.22;;;;;;;13.65;100.00;94709.50;10503694;28;20279;-72
2021/09/18 19:40:48;;;;;;;8.32;5.07;;;;;;;13.90;100.00;94704.75;10509289;28;20028;-71
2021/09/18 19:45:48;;;;;;;6.15;5.00;;;;;;;14.02;100.00;94692.41;10507861;28;20016;-72
2021/09/18 19:50:49;;;;;;;9.57;4.37;;;;;;;14.15;100.00;94696.25;10507084;28;20032;-72
2021/09/18 19:55:49;;;;;;;6.07;4.25;;;;;;;14.19;100.00;94699.97;10507693;28;20308;-72
2021/09/18 20:00:50;;;;;;;5.37;4.07;;;;;;;14.31;100.00;94704.09;10512547;28;20056;-72
2021/09/18 20:05:50;;;;;;;8.35;4.13;;;;;;;14.40;100.00;94706.91;10507532;28;20281;-72
2021/09/18 20:10:50;;;;;;;8.63;5.27;;;;;;;14.46;100.00;94701.13;10492765;28;20056;-72
2021/09/18 20:15:51;;;;;;;12.77;7.30;;;;;;;14.32;100.00;94678.66;10485732;28;20377;-72
2021/09/18 20:20:51;;;;;;;14.07;8.63;;;;;;;14.36;100.00;94682.38;10486930;28;20267;-74
2021/09/18 20:25:52;;;;;;;27.58;15.30;;;;;;;14.27;100.00;94686.88;10487324;28;20706;-72
2021/09/18 20:30:52;;;;;;;15.60;8.57;;;;;;;14.19;100.00;94688.34;10487540;28;20470;-72
2021/09/18 20:35:53;;;;;;;16.05;7.45;;;;;;;14.13;100.00;94684.91;10487825;28;20282;-72
2021/09/18 20:40:54;;;;;;;10.65;6.13;;;;;;;13.78;100.00;94694.44;10487387;28;20376;-71
2021/09/18 20:45:54;;;;;;;9.82;5.90;;;;;;;13.42;100.00;94686.84;10469042;28;20024;-72
2021/09/18 20:50:55;;;;;;;8.05;5.75;;;;;;;13.37;100.00;94676.94;10487717;28;20028;-72
2021/09/18 20:55:59;;;;;;;8.73;5.38;;;;;;;13.33;100.00;94689.38;10487254;28;20035;-72
2021/09/18 21:01:03;;;;;;;9.32;5.78;;;;;;;13.36;100.00;94688.03;10486746;28;20103;-72
2021/09/18 21:06:03;;;;;;;8.75;6.07;;;;;;;13.50;100.00;94687.00;10468937;28;20081;-72
2021/09/18 21:11:04;;;;;;;9.80;6.10;;;;;;;13.67;100.00;94693.78;10486727;28;20081;-72
2021/09/18 21:16:05;;;;;;;9.15;6.15;;;;;;;13.72;100.00;94696.41;10486169;28;20426;-72
2021/09/18 21:21:05;;;;;;;7.57;5.68;;;;;;;13.76;100.00;94693.91;10486618;28;20036;-72
2021/09/18 21:26:06;;;;;;;9.90;6.03;;;;;;;13.88;100.00;94701.56;10486559;28;20085;-73
2021/09/18 21:31:07;;;;;;;9.75;6.53;;;;;;;13.94;100.00;94703.09;10486452;28;20103;-72
2021/09/18 21:36:07;;;;;;;8.70;4.90;;;;;;;14.05;100.00;94704.53;10486637;28;20028;-72
2021/09/18 21:41:08;;;;;;;10.07;5.85;;;;;;;14.10;100.00;94692.84;10486187;28;20479;-72
2021/09/18 21:46:08;;;;;;;9.40;5.35;;;;;;;14.19;100.00;94691.03;10486181;28;20531;-73
2021/09/18 21:51:09;;;;;;;9.48;5.18;;;;;;;14.17;100.00;94702.16;10485875;28;20016;-72
2021/09/18 21:56:09;;;;;;;8.23;5.50;;;;;;;14.10;100.00;94704.44;10485208;28;20071;-72
2021/09/18 22:01:30;;;;;;;15.23;6.60;;;;;;;14.03;100.00;94709.44;10485633;28;20259;-72
2021/09/18 22:06:31;;;;;;;15.50;7.47;;;;;;;14.01;100.00;94700.81;10486021;28;20267;-73
2021/09/18 22:11:34;;;;;;;11.68;7.93;;;;;;;14.08;100.00;94703.94;10485637;28;20397;-73
2021/09/18 22:16:36;;;;;;;11.18;7.57;;;;;;;14.06;100.00;94706.13;10485325;28;20049;-73
2021/09/18 22:21:36;;;;;;;14.07;8.13;;;;;;;13.89;100.00;94703.97;10485060;28;20116;-72
2021/09/18 22:26:38;;;;;;;15.98;8.68;;;;;;;13.96;100.00;94709.00;10482973;28;20487;-72
2021/09/18 22:31:38;;;;;;;13.50;8.95;;;;;;;13.98;100.00;94709.50;10483926;28;20036;-72
2021/09/18 22:36:38;;;;;;;13.63;8.33;;;;;;;13.75;100.00;94719.34;10488023;28;20024;-72
2021/09/18 22:41:39;;;;;;;15.87;11.37;;;;;;;13.71;100.00;94729.91;10489710;28;20274;-72
2021/09/18 22:46:40;;;;;;;13.30;10.88;;;;;;;13.61;100.00;94727.38;10490211;28;20344;-71
2021/09/18 22:51:41;;;;;;;14.88;9.38;;;;;;;13.37;100.00;94722.00;10470970;28;20032;-71